Balmoral — GRPM — position and weather

sailwx.info

Track history (hours):
 
Tides and Currents Weather Stations Pressure Air Temp Water Temp Dewpoint Dewpoint Depression Visibility Wind Speed Wind Dir Waves Ship Positions

Balmoral

Operator: Waverly Excursions Ltd

Last reported at 2018-Oct-20 16:39 UTC. Time now 2018-Nov-14 02:17 UTC.
Position N 55°52' W 004°21'.
Warning: this ship's position is 24 days out of date.

Length 73 m; draft 2 m.

Type: Ship. MMSI: 232001540.

Date/timePositionNaut miles runAvg speedWind from/ knotsBaromVisibWave heightAir tempDewpointWater temp
2018-Oct-20 16:39N 55°52' W 004°21'210.0
2018-Oct-20 16:28N 55°53' W 004°23'512.7
2018-Oct-20 16:03N 55°56' W 004°31'113.7
2018-Oct-20 16:00N 55°56' W 004°32'713.4
2018-Oct-20 15:29N 55°57' W 004°45'511.5
2018-Oct-20 15:03N 55°57' W 004°54'114.6
2018-Oct-20 15:00N 55°56' W 004°55'1314.1
2018-Oct-20 14:04N 55°43' W 005°00'913.5
2018-Oct-20 13:25N 55°44' W 005°15'21 7.8
2018-Oct-20 10:40N 55°26' W 005°36'1 0.5
2018-Oct-20 09:06N 55°25' W 005°35'5 4.7
2018-Oct-20 08:02N 55°25' W 005°26'13 9.0
2018-Oct-20 06:32N 55°11' W 005°23'5 9.0
2018-Oct-20 05:56N 55°06' W 005°22'10 8.6
2018-Oct-20 04:48N 54°56' W 005°19'3 9.5
2018-Oct-20 04:30N 54°54' W 005°18'613.3
2018-Oct-20 04:03N 54°48' W 005°16'113.2
2018-Oct-20 04:00N 54°47' W 005°16'613.0
2018-Oct-20 03:30N 54°41' W 005°14'613.0
2018-Oct-20 03:03N 54°35' W 005°13'113.4
2018-Oct-20 03:00N 54°34' W 005°13'713.4
2018-Oct-20 02:30N 54°28' W 005°12'613.6
2018-Oct-20 02:03N 54°21' W 005°11'111.8
2018-Oct-20 02:01N 54°21' W 005°11'4 8.9
2018-Oct-20 01:30N 54°16' W 005°11'613.6
2018-Oct-20 01:03N 54°10' W 005°10'113.6
2018-Oct-20 01:00N 54°10' W 005°10'4313.7
2018-Oct-19 21:51N 53°27' W 004°57'10513.7
2018-Oct-19 14:13N 51°43' W 005°22'1014.2
2018-Oct-19 13:30N 51°34' W 005°16'613.9
2018-Oct-19 13:03N 51°29' W 005°12'113.7
2018-Oct-19 13:00N 51°28' W 005°11'713.8
2018-Oct-19 12:30N 51°22' W 005°07'2214.0
2018-Oct-19 10:55N 51°00' W 004°59'513.2
2018-Oct-19 10:30N 50°55' W 004°59'614.3
2018-Oct-19 10:04N 50°50' W 005°07'114.3
2018-Oct-19 10:01N 50°50' W 005°07'714.1
2018-Oct-19 09:31N 50°45' W 005°15'613.8
2018-Oct-19 09:03N 50°40' W 005°23'114.1
2018-Oct-19 09:00N 50°40' W 005°23'1014.0
2018-Oct-19 08:16N 50°32' W 005°35'413.8
2018-Oct-19 07:58N 50°29' W 005°39'13910.0
2018-Oct-18 18:01N 50°33' W 002°00'013.3
2018-Oct-18 18:00N 50°33' W 001°60'713.7
2018-Oct-18 17:30N 50°35' W 001°50'2113.3
2018-Oct-18 15:56N 50°46' W 001°22'4 9.3
2018-Oct-18 15:30N 50°49' W 001°18'510.6
2018-Oct-18 15:03N 50°53' W 001°23'0 8.7
2018-Oct-18 15:00N 50°53' W 001°24'1 0.7
2018-Oct-18 14:03N 50°53' W 001°24'0 0.0
2018-Oct-18 13:30N 50°53' W 001°24'0 0.0
2018-Oct-18 13:03N 50°53' W 001°24'0 0.0
2018-Oct-18 13:00N 50°53' W 001°24'0 0.0
2018-Oct-18 12:30N 50°53' W 001°24'0 0.0
2018-Oct-18 12:03N 50°53' W 001°24'0 0.0
2018-Oct-18 12:00N 50°53' W 001°24'0 0.0
2018-Oct-18 11:30N 50°53' W 001°24'0 0.0
2018-Oct-18 11:03N 50°53' W 001°24'0 0.0
2018-Oct-18 11:00N 50°53' W 001°24'0 0.0
2018-Oct-18 10:30N 50°53' W 001°24'0 0.0
2018-Oct-18 10:03N 50°53' W 001°24'0 0.0
2018-Oct-18 10:00N 50°53' W 001°24'0 0.0
2018-Oct-18 09:30N 50°53' W 001°24'0 0.0
2018-Oct-18 09:00N 50°53' W 001°24'0 0.0
2018-Oct-18 08:30N 50°53' W 001°24'0 0.0
2018-Oct-18 07:57N 50°53' W 001°24'0 0.0
2018-Oct-18 07:30N 50°53' W 001°24'0 0.0
2018-Oct-18 07:03N 50°53' W 001°24'0 0.0
2018-Oct-18 06:57N 50°53' W 001°24'0 0.0
2018-Oct-18 06:27N 50°53' W 001°24'0 0.0
2018-Oct-18 06:00N 50°53' W 001°24'0 0.0
2018-Oct-18 05:30N 50°53' W 001°24'0 0.0
2018-Oct-18 05:03N 50°53' W 001°24'0 0.0
2018-Oct-18 04:57N 50°53' W 001°24'0 0.0
2018-Oct-18 04:30N 50°53' W 001°24'0 0.0
2018-Oct-18 04:03N 50°53' W 001°24'0 0.0
2018-Oct-18 04:00N 50°53' W 001°24'0 0.0
2018-Oct-18 03:30N 50°53' W 001°24'0 0.0
2018-Oct-18 03:03N 50°53' W 001°24'0 0.0
2018-Oct-18 03:00N 50°53' W 001°24'0 0.0
2018-Oct-18 02:30N 50°53' W 001°24'0 0.0
2018-Oct-18 02:03N 50°53' W 001°24'0 0.0
2018-Oct-18 02:00N 50°53' W 001°24'0 0.0
2018-Oct-18 01:30N 50°53' W 001°24'0 0.0
2018-Oct-18 01:03N 50°53' W 001°24'0 0.0
2018-Oct-18 01:00N 50°53' W 001°24'0 0.0
2018-Oct-18 00:30N 50°53' W 001°24'0 0.0
2018-Oct-18 00:03N 50°53' W 001°24'0 0.0
2018-Oct-18 00:00N 50°53' W 001°24'0 0.0
2018-Oct-17 23:30N 50°53' W 001°24'0 0.0
2018-Oct-17 23:03N 50°53' W 001°24'0 0.0
2018-Oct-17 23:00N 50°53' W 001°24'0 0.0
2018-Oct-17 22:30N 50°53' W 001°24'0 0.0
2018-Oct-17 22:03N 50°53' W 001°24'0 0.0
2018-Oct-17 22:00N 50°53' W 001°24'0 0.0
2018-Oct-17 21:30N 50°53' W 001°24'0 0.0
2018-Oct-17 21:03N 50°53' W 001°24'0 0.0
2018-Oct-17 21:00N 50°53' W 001°24'0 0.0
2018-Oct-17 20:27N 50°53' W 001°24'0 0.0
2018-Oct-17 20:03N 50°53' W 001°24'0 0.0
2018-Oct-17 20:00N 50°53' W 001°24'0 0.0
2018-Oct-17 19:30N 50°53' W 001°24'0 0.0
2018-Oct-17 19:03N 50°53' W 001°24'0 0.0
2018-Oct-17 19:00N 50°53' W 001°24'0 0.0
2018-Oct-17 18:30N 50°53' W 001°24'0 0.0
2018-Oct-17 18:03N 50°53' W 001°24'0 0.0
2018-Oct-17 18:00N 50°53' W 001°24'0 0.0
2018-Oct-17 17:30N 50°53' W 001°24'0 0.0
2018-Oct-17 17:03N 50°53' W 001°24'0 0.0
2018-Oct-17 17:00N 50°53' W 001°24'0 0.0
2018-Oct-17 16:30N 50°53' W 001°24'0 0.0
2018-Oct-17 16:03N 50°53' W 001°24'0 0.0
2018-Oct-17 15:57N 50°53' W 001°24'0 0.0
2018-Oct-17 15:30N 50°53' W 001°24'0 0.0
2018-Oct-17 15:03N 50°53' W 001°24'0 0.0
2018-Oct-17 15:00N 50°53' W 001°24'0 0.0
2018-Oct-17 14:00N 50°53' W 001°24'0 0.0
2018-Oct-17 13:30N 50°53' W 001°24'0 0.0
2018-Oct-17 13:03N 50°53' W 001°24'0 0.0
2018-Oct-17 13:00N 50°53' W 001°24'0 0.0
2018-Oct-17 12:30N 50°53' W 001°24'0 0.0
2018-Oct-17 12:03N 50°53' W 001°24'0 0.0
2018-Oct-17 12:00N 50°53' W 001°24'0 0.0
2018-Oct-17 11:30N 50°53' W 001°24'0 0.0
2018-Oct-17 11:03N 50°53' W 001°24'0 0.0
2018-Oct-17 11:00N 50°53' W 001°24'0 0.0
2018-Oct-17 10:30N 50°53' W 001°24'0 0.0
2018-Oct-17 10:00N 50°53' W 001°24'0 0.0
2018-Oct-17 09:27N 50°53' W 001°24'0 0.0
2018-Oct-17 09:03N 50°53' W 001°24'0 0.0
2018-Oct-17 08:57N 50°53' W 001°24'0 0.0
2018-Oct-17 08:30N 50°53' W 001°24'0 0.0
2018-Oct-17 08:03N 50°53' W 001°24'0 0.0
2018-Oct-17 08:00N 50°53' W 001°24'0 0.0
2018-Oct-17 07:30N 50°53' W 001°24'0 0.0
2018-Oct-17 07:03N 50°53' W 001°24'0 0.0
2018-Oct-17 07:00N 50°53' W 001°24'0 0.0
2018-Oct-17 06:30N 50°53' W 001°24'0 0.0
2018-Oct-17 06:03N 50°53' W 001°24'0 0.0
2018-Oct-17 06:00N 50°53' W 001°24'0 0.0
2018-Oct-17 05:30N 50°53' W 001°24'0 0.0
2018-Oct-17 05:03N 50°53' W 001°24'0 0.0
2018-Oct-17 05:00N 50°53' W 001°24'0 0.0
2018-Oct-17 04:30N 50°53' W 001°24'0 0.0
2018-Oct-17 04:03N 50°53' W 001°24'0 0.0
2018-Oct-17 04:00N 50°53' W 001°24'0 0.0
2018-Oct-17 03:30N 50°53' W 001°24'0 0.0
2018-Oct-17 03:03N 50°53' W 001°24'0 0.0
2018-Oct-17 03:00N 50°53' W 001°24'0 0.0
2018-Oct-17 02:30N 50°53' W 001°24'0 0.0
2018-Oct-17 02:03N 50°53' W 001°24'0 0.0
2018-Oct-17 02:00N 50°53' W 001°24'0 0.0
2018-Oct-17 01:30N 50°53' W 001°24'0 0.0
2018-Oct-17 01:03N 50°53' W 001°24'0 0.0
2018-Oct-17 01:00N 50°53' W 001°24'0 0.0
2018-Oct-17 00:30N 50°53' W 001°24'0 0.0
2018-Oct-17 00:03N 50°53' W 001°24'0 0.0
2018-Oct-17 00:00N 50°53' W 001°24'0 0.0
2018-Oct-16 23:30N 50°53' W 001°24'0 0.0
2018-Oct-16 23:03N 50°53' W 001°24'0 0.0
2018-Oct-16 23:00N 50°53' W 001°24'0 0.0
2018-Oct-16 22:30N 50°53' W 001°24'0 0.0
2018-Oct-16 22:03N 50°53' W 001°24'0 0.0
2018-Oct-16 22:00N 50°53' W 001°24'0 0.0
2018-Oct-16 21:30N 50°53' W 001°24'0 0.0
2018-Oct-16 21:03N 50°53' W 001°24'0 0.0
2018-Oct-16 21:00N 50°53' W 001°24'0 0.0
2018-Oct-16 20:30N 50°53' W 001°24'0 0.0
2018-Oct-16 20:03N 50°53' W 001°24'0 0.0
2018-Oct-16 20:00N 50°53' W 001°24'0 0.0
2018-Oct-16 19:30N 50°53' W 001°24'0 0.0
2018-Oct-16 19:03N 50°53' W 001°24'0 0.0
2018-Oct-16 19:00N 50°53' W 001°24'0 0.0
2018-Oct-16 18:30N 50°53' W 001°24'0 0.0
2018-Oct-16 18:03N 50°53' W 001°24'0 0.0
2018-Oct-16 18:00N 50°53' W 001°24'0 0.0
2018-Oct-16 17:30N 50°53' W 001°24'0 0.0
2018-Oct-16 17:03N 50°53' W 001°24'0 0.0
2018-Oct-16 17:00N 50°53' W 001°24'0 0.0
2018-Oct-16 16:30N 50°53' W 001°24'0 0.0
2018-Oct-16 16:03N 50°53' W 001°24'0 0.0
2018-Oct-16 16:00N 50°53' W 001°24'0 0.0
2018-Oct-16 15:30N 50°53' W 001°24'0 0.0
2018-Oct-16 15:03N 50°53' W 001°24'0 0.0
2018-Oct-16 15:00N 50°53' W 001°24'0 0.0
2018-Oct-16 14:03N 50°53' W 001°24'0 0.0
2018-Oct-16 14:00N 50°53' W 001°24'0 0.0
2018-Oct-16 13:30N 50°53' W 001°24'0 0.0
2018-Oct-16 13:00N 50°53' W 001°24'0 0.0
2018-Oct-16 12:30N 50°53' W 001°24'0 0.0
2018-Oct-16 12:03N 50°53' W 001°24'0 0.0
2018-Oct-16 12:00N 50°53' W 001°24'0 0.0
2018-Oct-16 11:30N 50°53' W 001°24'0 0.0
2018-Oct-16 11:03N 50°53' W 001°24'0 0.0
2018-Oct-16 11:00N 50°53' W 001°24'0 0.0
2018-Oct-16 10:30N 50°53' W 001°24'0 0.0
2018-Oct-16 10:03N 50°53' W 001°24'0 0.0
2018-Oct-16 10:00N 50°53' W 001°24'0 0.0
2018-Oct-16 09:30N 50°53' W 001°24'0 0.0
2018-Oct-16 09:03N 50°53' W 001°24'0 0.0
2018-Oct-16 09:00N 50°53' W 001°24'0 0.0
2018-Oct-16 08:30N 50°53' W 001°24'0 0.0
2018-Oct-16 08:03N 50°53' W 001°24'0 0.0
2018-Oct-16 08:00N 50°53' W 001°24'0 0.0
2018-Oct-16 07:30N 50°53' W 001°24'0 0.0
2018-Oct-16 07:03N 50°53' W 001°24'0 0.0
2018-Oct-16 07:00N 50°53' W 001°24'0 0.0
2018-Oct-16 06:30N 50°53' W 001°24'0 0.0
2018-Oct-16 06:03N 50°53' W 001°24'0 0.0
2018-Oct-16 06:00N 50°53' W 001°24'0 0.0
2018-Oct-16 05:30N 50°53' W 001°24'0 0.0
2018-Oct-16 05:03N 50°53' W 001°24'0 0.0
2018-Oct-16 04:57N 50°53' W 001°24'0 0.0
2018-Oct-16 04:30N 50°53' W 001°24'0 0.0
2018-Oct-16 04:03N 50°53' W 001°24'0 0.0
2018-Oct-16 04:00N 50°53' W 001°24'0 0.0
2018-Oct-16 03:30N 50°53' W 001°24'0 0.0
2018-Oct-16 03:03N 50°53' W 001°24'0 0.0
2018-Oct-16 02:57N 50°53' W 001°24'0 0.0
2018-Oct-16 02:27N 50°53' W 001°24'0 0.0
2018-Oct-16 02:03N 50°53' W 001°24'0 0.0
2018-Oct-16 02:00N 50°53' W 001°24'0 0.0
2018-Oct-16 01:30N 50°53' W 001°24'0 0.0
2018-Oct-16 01:03N 50°53' W 001°24'0 0.0
2018-Oct-16 01:00N 50°53' W 001°24'0 0.0
2018-Oct-16 00:30N 50°53' W 001°24'0 0.0
2018-Oct-16 00:03N 50°53' W 001°24'0 0.0
2018-Oct-15 23:57N 50°53' W 001°24'0 0.0
2018-Oct-15 23:30N 50°53' W 001°24'0 0.0
2018-Oct-15 23:03N 50°53' W 001°24'0 0.0
2018-Oct-15 23:00N 50°53' W 001°24'0 0.0
2018-Oct-15 22:30N 50°53' W 001°24'0 0.0
2018-Oct-15 22:03N 50°53' W 001°24'0 0.0
2018-Oct-15 21:57N 50°53' W 001°24'0 0.0
2018-Oct-15 21:27N 50°53' W 001°24'0 0.0
2018-Oct-15 21:03N 50°53' W 001°24'0 0.0
2018-Oct-15 21:00N 50°53' W 001°24'0 0.0
2018-Oct-15 20:30N 50°53' W 001°24'0 0.0
2018-Oct-15 20:03N 50°53' W 001°24'0 0.0
2018-Oct-15 20:00N 50°53' W 001°24'0 0.0
2018-Oct-15 19:30N 50°53' W 001°24'0 0.0
2018-Oct-15 19:03N 50°53' W 001°24'0 0.0
2018-Oct-15 19:00N 50°53' W 001°24'0 0.0
2018-Oct-15 18:27N 50°53' W 001°24'0 0.0
2018-Oct-15 18:03N 50°53' W 001°24'0 0.0
2018-Oct-15 18:00N 50°53' W 001°24'0 0.0
2018-Oct-15 17:30N 50°53' W 001°24'0 0.0
2018-Oct-15 17:03N 50°53' W 001°24'0 0.0
2018-Oct-15 17:00N 50°53' W 001°24'0 0.0
2018-Oct-15 16:30N 50°53' W 001°24'0 0.0
2018-Oct-15 16:03N 50°53' W 001°24'0 0.0
2018-Oct-15 16:00N 50°53' W 001°24'0 0.0
2018-Oct-15 15:24N 50°53' W 001°24'0 0.0
2018-Oct-15 15:03N 50°53' W 001°24'0 0.0
2018-Oct-15 14:57N 50°53' W 001°24'0 0.0
2018-Oct-15 14:30N 50°53' W 001°24'0 0.0
2018-Oct-15 14:00N 50°53' W 001°24'0 0.0
2018-Oct-15 13:30N 50°53' W 001°24'0 0.0
2018-Oct-15 12:51N 50°53' W 001°24'0 0.0
2018-Oct-15 12:15N 50°53' W 001°24'0 0.0
2018-Oct-15 12:03N 50°53' W 001°24'0 0.0
2018-Oct-15 11:57N 50°53' W 001°24'0 0.0
2018-Oct-15 11:30N 50°53' W 001°24'0 0.0
2018-Oct-15 11:00N 50°53' W 001°24'0 0.0
2018-Oct-15 10:27N 50°53' W 001°24'0 0.0
2018-Oct-15 10:03N 50°53' W 001°24'0 0.0
2018-Oct-15 09:57N 50°53' W 001°24'0 0.0
2018-Oct-15 09:30N 50°53' W 001°24'0 0.0
2018-Oct-15 09:03N 50°53' W 001°24'0 0.0
2018-Oct-15 09:00N 50°53' W 001°24'0 0.0
2018-Oct-15 08:27N 50°53' W 001°24'0 0.0
2018-Oct-15 08:03N 50°53' W 001°24'0 0.0
2018-Oct-15 08:00N 50°53' W 001°24'0 0.0
2018-Oct-15 07:30N 50°53' W 001°24'0 0.0
2018-Oct-15 07:03N 50°53' W 001°24'0 0.0
2018-Oct-15 07:00N 50°53' W 001°24'0 0.0
2018-Oct-15 06:30N 50°53' W 001°24'0 0.0
2018-Oct-15 06:03N 50°53' W 001°24'0 0.0
2018-Oct-15 05:57N 50°53' W 001°24'0 0.0
2018-Oct-15 05:30N 50°53' W 001°24'0 0.0
2018-Oct-15 05:03N 50°53' W 001°24'0 0.0
2018-Oct-15 05:00N 50°53' W 001°24'0 0.0
2018-Oct-15 04:30N 50°53' W 001°24'0 0.0
2018-Oct-15 04:00N 50°53' W 001°24'0 0.0
2018-Oct-15 03:30N 50°53' W 001°24'0 0.0
2018-Oct-15 03:03N 50°53' W 001°24'0 0.0
2018-Oct-15 03:00N 50°53' W 001°24'0 0.0
2018-Oct-15 02:30N 50°53' W 001°24'0 0.0
2018-Oct-15 02:03N 50°53' W 001°24'0 0.0
2018-Oct-15 01:57N 50°53' W 001°24'0 0.0
2018-Oct-15 01:27N 50°53' W 001°24'0 0.0
2018-Oct-15 01:00N 50°53' W 001°24'0 0.0
2018-Oct-15 00:30N 50°53' W 001°24'0 0.0
2018-Oct-15 00:03N 50°53' W 001°24'0 0.0
2018-Oct-15 00:00N 50°53' W 001°24'0 0.0
2018-Oct-14 23:30N 50°53' W 001°24'0 0.0
2018-Oct-14 23:03N 50°53' W 001°24'0 0.0
2018-Oct-14 22:57N 50°53' W 001°24'0 0.0
2018-Oct-14 22:27N 50°53' W 001°24'0 0.0
2018-Oct-14 22:03N 50°53' W 001°24'0 0.0
2018-Oct-14 22:00N 50°53' W 001°24'0 0.0
2018-Oct-14 21:30N 50°53' W 001°24'0 0.0
2018-Oct-14 21:03N 50°53' W 001°24'0 0.0
2018-Oct-14 21:00N 50°53' W 001°24'0 0.0
2018-Oct-14 20:30N 50°53' W 001°24'0 0.0
2018-Oct-14 20:03N 50°53' W 001°24'0 0.0
2018-Oct-14 20:00N 50°53' W 001°24'0 0.0
2018-Oct-14 19:27N 50°53' W 001°24'0 0.0
2018-Oct-14 19:00N 50°53' W 001°24'0 0.0
2018-Oct-14 18:30N 50°53' W 001°24'0 0.0
2018-Oct-14 18:03N 50°53' W 001°24'0 0.0
2018-Oct-14 18:00N 50°53' W 001°24'0 0.0
2018-Oct-14 17:30N 50°53' W 001°24'0 0.0
2018-Oct-14 17:03N 50°53' W 001°24'0 0.0
2018-Oct-14 17:00N 50°53' W 001°24'0 0.0
2018-Oct-14 16:21N 50°53' W 001°24'0 0.0
2018-Oct-14 16:03N 50°53' W 001°24'0 0.0
2018-Oct-14 16:00N 50°53' W 001°24'0 0.0
2018-Oct-14 15:15N 50°53' W 001°24'0 0.0
2018-Oct-14 15:00N 50°53' W 001°24'0 0.0
2018-Oct-14 14:03N 50°53' W 001°24'0 0.0
2018-Oct-14 14:00N 50°53' W 001°24'0 0.0
2018-Oct-14 13:30N 50°53' W 001°24'0 0.0
2018-Oct-14 13:00N 50°53' W 001°24'0 0.0
2018-Oct-14 12:30N 50°53' W 001°24'0 0.0
2018-Oct-14 11:42N 50°53' W 001°24'0 0.0
2018-Oct-14 11:30N 50°53' W 001°24'0 0.0
2018-Oct-14 11:00N 50°53' W 001°24'0 0.0
2018-Oct-14 10:18N 50°53' W 001°24'0 0.0
2018-Oct-14 10:03N 50°53' W 001°24'0 0.0
2018-Oct-14 09:57N 50°53' W 001°24'0 0.0
2018-Oct-14 09:27N 50°53' W 001°24'0 0.0
2018-Oct-14 09:03N 50°53' W 001°24'0 0.0
2018-Oct-14 09:00N 50°53' W 001°24'0 0.0
2018-Oct-14 08:27N 50°53' W 001°24'0 0.0
2018-Oct-14 08:03N 50°53' W 001°24'0 0.0
2018-Oct-14 07:27N 50°53' W 001°24'0 0.0
2018-Oct-14 07:03N 50°53' W 001°24'0 0.0
2018-Oct-14 06:57N 50°53' W 001°24'0 0.0
2018-Oct-14 06:30N 50°53' W 001°24'0 0.0
2018-Oct-14 06:03N 50°53' W 001°24'0 0.0
2018-Oct-14 06:00N 50°53' W 001°24'0 0.0
2018-Oct-14 05:30N 50°53' W 001°24'0 0.0
2018-Oct-14 05:03N 50°53' W 001°24'0 0.0
2018-Oct-14 05:00N 50°53' W 001°24'0 0.0
2018-Oct-14 04:30N 50°53' W 001°24'0 0.0
2018-Oct-14 04:03N 50°53' W 001°24'0 0.0
2018-Oct-14 04:00N 50°53' W 001°24'0 0.0
2018-Oct-14 03:30N 50°53' W 001°24'0 0.0
2018-Oct-14 03:03N 50°53' W 001°24'0 0.0
2018-Oct-14 03:00N 50°53' W 001°24'0 0.0
2018-Oct-14 02:30N 50°53' W 001°24'0 0.0
2018-Oct-14 02:03N 50°53' W 001°24'0 0.0
2018-Oct-14 02:00N 50°53' W 001°24'0 0.0
2018-Oct-14 01:30N 50°53' W 001°24'0 0.0
2018-Oct-14 01:03N 50°53' W 001°24'0 0.0
2018-Oct-14 01:00N 50°53' W 001°24'0 0.0
2018-Oct-14 00:30N 50°53' W 001°24'0 0.0
2018-Oct-14 00:03N 50°53' W 001°24'0 0.0
2018-Oct-14 00:00N 50°53' W 001°24'0 0.0
2018-Oct-13 23:30N 50°53' W 001°24'0 0.0
2018-Oct-13 23:03N 50°53' W 001°24'0 0.0
2018-Oct-13 23:00N 50°53' W 001°24'0 0.0
2018-Oct-13 22:30N 50°53' W 001°24'0 0.0
2018-Oct-13 22:00N 50°53' W 001°24'0 0.0
2018-Oct-13 21:30N 50°53' W 001°24'0 0.0
2018-Oct-13 21:03N 50°53' W 001°24'0 0.0
2018-Oct-13 20:57N 50°53' W 001°24'0 0.0
2018-Oct-13 20:30N 50°53' W 001°24'0 0.0
2018-Oct-13 20:03N 50°53' W 001°24'0 0.0
2018-Oct-13 20:00N 50°53' W 001°24'0 0.0
2018-Oct-13 19:30N 50°53' W 001°24'0 0.0
2018-Oct-13 19:03N 50°53' W 001°24'0 0.0
2018-Oct-13 19:00N 50°53' W 001°24'0 0.0
2018-Oct-13 18:30N 50°53' W 001°24'0 0.0
2018-Oct-13 18:03N 50°53' W 001°24'0 0.0
2018-Oct-13 18:00N 50°53' W 001°24'0 0.0
2018-Oct-13 17:30N 50°53' W 001°24'0 0.0
2018-Oct-13 17:03N 50°53' W 001°24'0 0.0
2018-Oct-13 17:00N 50°53' W 001°24'0 0.0
2018-Oct-13 16:30N 50°53' W 001°24'0 0.0
2018-Oct-13 16:03N 50°53' W 001°24'0 0.0
2018-Oct-13 16:00N 50°53' W 001°24'0 0.0
2018-Oct-13 15:30N 50°53' W 001°24'0 0.0
2018-Oct-13 15:03N 50°53' W 001°24'0 0.0
2018-Oct-13 15:00N 50°53' W 001°24'0 0.0
2018-Oct-13 14:30N 50°53' W 001°24'0 0.0
2018-Oct-13 14:00N 50°53' W 001°24'0 0.0
2018-Oct-13 13:30N 50°53' W 001°24'0 0.0
2018-Oct-13 13:03N 50°53' W 001°24'0 0.0
2018-Oct-13 13:00N 50°53' W 001°24'0 0.0
2018-Oct-13 12:30N 50°53' W 001°24'0 0.0
2018-Oct-13 12:03N 50°53' W 001°24'0 0.0
2018-Oct-13 12:00N 50°53' W 001°24'0 0.0
2018-Oct-13 11:30N 50°53' W 001°24'0 0.0
2018-Oct-13 11:03N 50°53' W 001°24'0 0.0
2018-Oct-13 11:00N 50°53' W 001°24'0 0.0
2018-Oct-13 10:30N 50°53' W 001°24'0 0.0
2018-Oct-13 10:03N 50°53' W 001°24'0 0.0
2018-Oct-13 10:00N 50°53' W 001°24'0 0.0
2018-Oct-13 09:30N 50°53' W 001°24'0 0.0
2018-Oct-13 09:03N 50°53' W 001°24'0 0.0
2018-Oct-13 09:00N 50°53' W 001°24'0 0.0
2018-Oct-13 08:30N 50°53' W 001°24'0 0.0
2018-Oct-13 08:03N 50°53' W 001°24'0 0.0
2018-Oct-13 08:00N 50°53' W 001°24'0 0.0
2018-Oct-13 07:30N 50°53' W 001°24'0 0.0
2018-Oct-13 07:03N 50°53' W 001°24'0 0.0
2018-Oct-13 07:00N 50°53' W 001°24'0 0.0
2018-Oct-13 06:27N 50°53' W 001°24'0 0.0
2018-Oct-13 06:03N 50°53' W 001°24'0 0.0
2018-Oct-13 06:00N 50°53' W 001°24'0 0.0
2018-Oct-13 05:30N 50°53' W 001°24'0 0.0
2018-Oct-13 05:03N 50°53' W 001°24'0 0.0
2018-Oct-13 04:57N 50°53' W 001°24'0 0.0
2018-Oct-13 04:30N 50°53' W 001°24'0 0.0
2018-Oct-13 04:03N 50°53' W 001°24'0 0.0
2018-Oct-13 04:00N 50°53' W 001°24'0 0.0
2018-Oct-13 03:30N 50°53' W 001°24'0 0.0
2018-Oct-13 03:03N 50°53' W 001°24'0 0.0
2018-Oct-13 03:00N 50°53' W 001°24'0 0.0
2018-Oct-13 02:30N 50°53' W 001°24'0 0.0
2018-Oct-13 02:03N 50°53' W 001°24'0 0.0
2018-Oct-13 02:00N 50°53' W 001°24'0 0.0
2018-Oct-13 01:27N 50°53' W 001°24'0 0.0
2018-Oct-13 01:03N 50°53' W 001°24'0 0.0
2018-Oct-13 01:00N 50°53' W 001°24'0 0.0
2018-Oct-13 00:30N 50°53' W 001°24'0 0.0
2018-Oct-13 00:00N 50°53' W 001°24'0 0.0
2018-Oct-12 23:30N 50°53' W 001°24'0 0.0
2018-Oct-12 23:00N 50°53' W 001°24'0 0.0
2018-Oct-12 22:30N 50°53' W 001°24'0 0.0
2018-Oct-12 22:03N 50°53' W 001°24'0 0.0
2018-Oct-12 22:00N 50°53' W 001°24'0 0.0
2018-Oct-12 21:30N 50°53' W 001°24'0 0.0
2018-Oct-12 21:03N 50°53' W 001°24'0 0.0
2018-Oct-12 21:00N 50°53' W 001°24'0 0.0
2018-Oct-12 20:30N 50°53' W 001°24'0 0.0
2018-Oct-12 20:03N 50°53' W 001°24'0 0.0
2018-Oct-12 20:00N 50°53' W 001°24'0 0.0
2018-Oct-12 19:30N 50°53' W 001°24'0 0.0
2018-Oct-12 19:00N 50°53' W 001°24'0 0.0
2018-Oct-12 18:27N 50°53' W 001°24'0 0.0
2018-Oct-12 18:03N 50°53' W 001°24'0 0.0
2018-Oct-12 18:00N 50°53' W 001°24'0 0.0
2018-Oct-12 17:30N 50°53' W 001°24'0 0.0
2018-Oct-12 17:03N 50°53' W 001°24'0 0.0
2018-Oct-12 16:57N 50°53' W 001°24'0 0.0
2018-Oct-12 16:18N 50°53' W 001°24'0 0.0
2018-Oct-12 16:03N 50°53' W 001°24'0 0.0
2018-Oct-12 16:00N 50°53' W 001°24'0 0.0
2018-Oct-12 15:30N 50°53' W 001°24'0 0.0
2018-Oct-12 15:03N 50°53' W 001°24'0 0.0
2018-Oct-12 15:00N 50°53' W 001°24'0 0.0
2018-Oct-12 14:03N 50°53' W 001°24'0 0.0
2018-Oct-12 13:57N 50°53' W 001°24'0 0.0
2018-Oct-12 13:30N 50°53' W 001°24'0 0.0
2018-Oct-12 13:03N 50°53' W 001°24'0 0.0
2018-Oct-12 13:00N 50°53' W 001°24'0 0.0
2018-Oct-12 12:30N 50°53' W 001°24'0 0.0
2018-Oct-12 12:03N 50°53' W 001°24'0 0.0
2018-Oct-12 11:57N 50°53' W 001°24'0 0.0
2018-Oct-12 11:30N 50°53' W 001°24'0 0.0
2018-Oct-12 11:03N 50°53' W 001°24'0 0.0
2018-Oct-12 11:00N 50°53' W 001°24'0 0.0
2018-Oct-12 10:27N 50°53' W 001°24'0 0.0
2018-Oct-12 10:00N 50°53' W 001°24'0 0.0
2018-Oct-12 09:30N 50°53' W 001°24'0 0.0
2018-Oct-12 09:03N 50°53' W 001°24'0 0.0
2018-Oct-12 09:00N 50°53' W 001°24'0 0.0
2018-Oct-12 08:30N 50°53' W 001°24'0 0.0
2018-Oct-12 08:03N 50°53' W 001°24'0 0.0
2018-Oct-12 07:57N 50°53' W 001°24'0 0.0
2018-Oct-12 07:30N 50°53' W 001°24'0 0.0
2018-Oct-12 07:03N 50°53' W 001°24'0 0.0
2018-Oct-12 06:57N 50°53' W 001°24'0 0.0
2018-Oct-12 06:30N 50°53' W 001°24'0 0.0
2018-Oct-12 06:03N 50°53' W 001°24'0 0.0
2018-Oct-12 06:00N 50°53' W 001°24'0 0.0
2018-Oct-12 05:27N 50°53' W 001°24'0 0.0
2018-Oct-12 05:00N 50°53' W 001°24'0 0.0
2018-Oct-12 04:30N 50°53' W 001°24'0 0.0
2018-Oct-12 04:03N 50°53' W 001°24'0 0.0
2018-Oct-12 03:57N 50°53' W 001°24'0 0.0
2018-Oct-12 03:30N 50°53' W 001°24'0 0.0
2018-Oct-12 03:03N 50°53' W 001°24'0 0.0
2018-Oct-12 03:00N 50°53' W 001°24'0 0.0
2018-Oct-12 02:30N 50°53' W 001°24'0 0.0
2018-Oct-12 02:00N 50°53' W 001°24'0 0.0
2018-Oct-12 01:30N 50°53' W 001°24'0 0.0
2018-Oct-12 01:03N 50°53' W 001°24'0 0.0
2018-Oct-12 00:57N 50°53' W 001°24'0 0.0
2018-Oct-12 00:30N 50°53' W 001°24'0 0.0
2018-Oct-12 00:03N 50°53' W 001°24'0 0.0
2018-Oct-12 00:00N 50°53' W 001°24'0 0.0
2018-Oct-11 23:30N 50°53' W 001°24'0 0.0
2018-Oct-11 23:03N 50°53' W 001°24'0 0.0
2018-Oct-11 23:00N 50°53' W 001°24'0 0.0
2018-Oct-11 22:30N 50°53' W 001°24'0 0.0
2018-Oct-11 22:03N 50°53' W 001°24'0 0.0
2018-Oct-11 21:57N 50°53' W 001°24'0 0.0
2018-Oct-11 21:30N 50°53' W 001°24'0 0.0
2018-Oct-11 21:03N 50°53' W 001°24'0 0.0
2018-Oct-11 21:00N 50°53' W 001°24'0 0.0
2018-Oct-11 20:30N 50°53' W 001°24'0 0.0
2018-Oct-11 20:03N 50°53' W 001°24'0 0.0
2018-Oct-11 19:54N 50°53' W 001°24'0 0.0
2018-Oct-11 19:30N 50°53' W 001°24'0 0.0
2018-Oct-11 19:03N 50°53' W 001°24'0 0.0
2018-Oct-11 19:00N 50°53' W 001°24'0 0.0
2018-Oct-11 18:30N 50°53' W 001°24'0 0.0
2018-Oct-11 18:03N 50°53' W 001°24'0 0.0
2018-Oct-11 18:00N 50°53' W 001°24'0 0.0
2018-Oct-11 17:30N 50°53' W 001°24'0 0.0
2018-Oct-11 17:03N 50°53' W 001°24'0 0.0
2018-Oct-11 16:57N 50°53' W 001°24'0 0.0
2018-Oct-11 16:30N 50°53' W 001°24'0 0.0
2018-Oct-11 16:00N 50°53' W 001°24'0 0.0
2018-Oct-11 15:30N 50°53' W 001°24'4 8.0
2018-Oct-11 15:03N 50°51' W 001°20'113.9
2018-Oct-11 15:00N 50°50' W 001°19'510.0
2018-Oct-11 14:30N 50°46' W 001°22'18 9.8
2018-Oct-11 12:43N 50°37' W 001°46'211.4
2018-Oct-11 12:30N 50°37' W 001°50'511.3
2018-Oct-11 12:03N 50°35' W 001°57'110.3
2018-Oct-11 12:00N 50°35' W 001°58'  
Track history (hours):
 
Tides and Currents Weather Stations Pressure Air Temp Water Temp Dewpoint Dewpoint Depression Visibility Wind Speed Wind Dir Waves Ship Positions

Balmoral

Operator: Waverly Excursions Ltd

Last reported at 2018-Oct-20 16:39 UTC. Time now 2018-Nov-14 02:17 UTC.
Position N 55°52' W 004°21'.
Warning: this ship's position is 24 days out of date.

Length 73 m; draft 2 m.

Type: Ship. MMSI: 232001540.

Date/timePositionNaut miles runAvg speedWind from/ knotsBaromVisibWave heightAir tempDewpointWater temp
2018-Oct-20 16:39N 55°52' W 004°21'210.0
2018-Oct-20 16:28N 55°53' W 004°23'512.7
2018-Oct-20 16:03N 55°56' W 004°31'113.7
2018-Oct-20 16:00N 55°56' W 004°32'713.4
2018-Oct-20 15:29N 55°57' W 004°45'511.5
2018-Oct-20 15:03N 55°57' W 004°54'114.6
2018-Oct-20 15:00N 55°56' W 004°55'1314.1
2018-Oct-20 14:04N 55°43' W 005°00'913.5
2018-Oct-20 13:25N 55°44' W 005°15'21 7.8
2018-Oct-20 10:40N 55°26' W 005°36'1 0.5
2018-Oct-20 09:06N 55°25' W 005°35'5 4.7
2018-Oct-20 08:02N 55°25' W 005°26'13 9.0
2018-Oct-20 06:32N 55°11' W 005°23'5 9.0
2018-Oct-20 05:56N 55°06' W 005°22'10 8.6
2018-Oct-20 04:48N 54°56' W 005°19'3 9.5
2018-Oct-20 04:30N 54°54' W 005°18'613.3
2018-Oct-20 04:03N 54°48' W 005°16'113.2
2018-Oct-20 04:00N 54°47' W 005°16'613.0
2018-Oct-20 03:30N 54°41' W 005°14'613.0
2018-Oct-20 03:03N 54°35' W 005°13'113.4
2018-Oct-20 03:00N 54°34' W 005°13'713.4
2018-Oct-20 02:30N 54°28' W 005°12'613.6
2018-Oct-20 02:03N 54°21' W 005°11'111.8
2018-Oct-20 02:01N 54°21' W 005°11'4 8.9
2018-Oct-20 01:30N 54°16' W 005°11'613.6
2018-Oct-20 01:03N 54°10' W 005°10'113.6
2018-Oct-20 01:00N 54°10' W 005°10'4313.7
2018-Oct-19 21:51N 53°27' W 004°57'10513.7
2018-Oct-19 14:13N 51°43' W 005°22'1014.2
2018-Oct-19 13:30N 51°34' W 005°16'613.9
2018-Oct-19 13:03N 51°29' W 005°12'113.7
2018-Oct-19 13:00N 51°28' W 005°11'713.8
2018-Oct-19 12:30N 51°22' W 005°07'2214.0
2018-Oct-19 10:55N 51°00' W 004°59'513.2
2018-Oct-19 10:30N 50°55' W 004°59'614.3
2018-Oct-19 10:04N 50°50' W 005°07'114.3
2018-Oct-19 10:01N 50°50' W 005°07'714.1
2018-Oct-19 09:31N 50°45' W 005°15'613.8
2018-Oct-19 09:03N 50°40' W 005°23'114.1
2018-Oct-19 09:00N 50°40' W 005°23'1014.0
2018-Oct-19 08:16N 50°32' W 005°35'413.8
2018-Oct-19 07:58N 50°29' W 005°39'13910.0
2018-Oct-18 18:01N 50°33' W 002°00'013.3
2018-Oct-18 18:00N 50°33' W 001°60'713.7
2018-Oct-18 17:30N 50°35' W 001°50'2113.3
2018-Oct-18 15:56N 50°46' W 001°22'4 9.3
2018-Oct-18 15:30N 50°49' W 001°18'510.6
2018-Oct-18 15:03N 50°53' W 001°23'0 8.7
2018-Oct-18 15:00N 50°53' W 001°24'1 0.7
2018-Oct-18 14:03N 50°53' W 001°24'0 0.0
2018-Oct-18 13:30N 50°53' W 001°24'0 0.0
2018-Oct-18 13:03N 50°53' W 001°24'0 0.0
2018-Oct-18 13:00N 50°53' W 001°24'0 0.0
2018-Oct-18 12:30N 50°53' W 001°24'0 0.0
2018-Oct-18 12:03N 50°53' W 001°24'0 0.0
2018-Oct-18 12:00N 50°53' W 001°24'0 0.0
2018-Oct-18 11:30N 50°53' W 001°24'0 0.0
2018-Oct-18 11:03N 50°53' W 001°24'0 0.0
2018-Oct-18 11:00N 50°53' W 001°24'0 0.0
2018-Oct-18 10:30N 50°53' W 001°24'0 0.0
2018-Oct-18 10:03N 50°53' W 001°24'0 0.0
2018-Oct-18 10:00N 50°53' W 001°24'0 0.0
2018-Oct-18 09:30N 50°53' W 001°24'0 0.0
2018-Oct-18 09:00N 50°53' W 001°24'0 0.0
2018-Oct-18 08:30N 50°53' W 001°24'0 0.0
2018-Oct-18 07:57N 50°53' W 001°24'0 0.0
2018-Oct-18 07:30N 50°53' W 001°24'0 0.0
2018-Oct-18 07:03N 50°53' W 001°24'0 0.0
2018-Oct-18 06:57N 50°53' W 001°24'0 0.0
2018-Oct-18 06:27N 50°53' W 001°24'0 0.0
2018-Oct-18 06:00N 50°53' W 001°24'0 0.0
2018-Oct-18 05:30N 50°53' W 001°24'0 0.0
2018-Oct-18 05:03N 50°53' W 001°24'0 0.0
2018-Oct-18 04:57N 50°53' W 001°24'0 0.0
2018-Oct-18 04:30N 50°53' W 001°24'0 0.0
2018-Oct-18 04:03N 50°53' W 001°24'0 0.0
2018-Oct-18 04:00N 50°53' W 001°24'0 0.0
2018-Oct-18 03:30N 50°53' W 001°24'0 0.0
2018-Oct-18 03:03N 50°53' W 001°24'0 0.0
2018-Oct-18 03:00N 50°53' W 001°24'0 0.0
2018-Oct-18 02:30N 50°53' W 001°24'0 0.0
2018-Oct-18 02:03N 50°53' W 001°24'0 0.0
2018-Oct-18 02:00N 50°53' W 001°24'0 0.0
2018-Oct-18 01:30N 50°53' W 001°24'0 0.0
2018-Oct-18 01:03N 50°53' W 001°24'0 0.0
2018-Oct-18 01:00N 50°53' W 001°24'0 0.0
2018-Oct-18 00:30N 50°53' W 001°24'0 0.0
2018-Oct-18 00:03N 50°53' W 001°24'0 0.0
2018-Oct-18 00:00N 50°53' W 001°24'0 0.0
2018-Oct-17 23:30N 50°53' W 001°24'0 0.0
2018-Oct-17 23:03N 50°53' W 001°24'0 0.0
2018-Oct-17 23:00N 50°53' W 001°24'0 0.0
2018-Oct-17 22:30N 50°53' W 001°24'0 0.0
2018-Oct-17 22:03N 50°53' W 001°24'0 0.0
2018-Oct-17 22:00N 50°53' W 001°24'0 0.0
2018-Oct-17 21:30N 50°53' W 001°24'0 0.0
2018-Oct-17 21:03N 50°53' W 001°24'0 0.0
2018-Oct-17 21:00N 50°53' W 001°24'0 0.0
2018-Oct-17 20:27N 50°53' W 001°24'0 0.0
2018-Oct-17 20:03N 50°53' W 001°24'0 0.0
2018-Oct-17 20:00N 50°53' W 001°24'0 0.0
2018-Oct-17 19:30N 50°53' W 001°24'0 0.0
2018-Oct-17 19:03N 50°53' W 001°24'0 0.0
2018-Oct-17 19:00N 50°53' W 001°24'0 0.0
2018-Oct-17 18:30N 50°53' W 001°24'0 0.0
2018-Oct-17 18:03N 50°53' W 001°24'0 0.0
2018-Oct-17 18:00N 50°53' W 001°24'0 0.0
2018-Oct-17 17:30N 50°53' W 001°24'0 0.0
2018-Oct-17 17:03N 50°53' W 001°24'0 0.0
2018-Oct-17 17:00N 50°53' W 001°24'0 0.0
2018-Oct-17 16:30N 50°53' W 001°24'0 0.0
2018-Oct-17 16:03N 50°53' W 001°24'0 0.0
2018-Oct-17 15:57N 50°53' W 001°24'0 0.0
2018-Oct-17 15:30N 50°53' W 001°24'0 0.0
2018-Oct-17 15:03N 50°53' W 001°24'0 0.0
2018-Oct-17 15:00N 50°53' W 001°24'0 0.0
2018-Oct-17 14:00N 50°53' W 001°24'0 0.0
2018-Oct-17 13:30N 50°53' W 001°24'0 0.0
2018-Oct-17 13:03N 50°53' W 001°24'0 0.0
2018-Oct-17 13:00N 50°53' W 001°24'0 0.0
2018-Oct-17 12:30N 50°53' W 001°24'0 0.0
2018-Oct-17 12:03N 50°53' W 001°24'0 0.0
2018-Oct-17 12:00N 50°53' W 001°24'0 0.0
2018-Oct-17 11:30N 50°53' W 001°24'0 0.0
2018-Oct-17 11:03N 50°53' W 001°24'0 0.0
2018-Oct-17 11:00N 50°53' W 001°24'0 0.0
2018-Oct-17 10:30N 50°53' W 001°24'0 0.0
2018-Oct-17 10:00N 50°53' W 001°24'0 0.0
2018-Oct-17 09:27N 50°53' W 001°24'0 0.0
2018-Oct-17 09:03N 50°53' W 001°24'0 0.0
2018-Oct-17 08:57N 50°53' W 001°24'0 0.0
2018-Oct-17 08:30N 50°53' W 001°24'0 0.0
2018-Oct-17 08:03N 50°53' W 001°24'0 0.0
2018-Oct-17 08:00N 50°53' W 001°24'0 0.0
2018-Oct-17 07:30N 50°53' W 001°24'0 0.0
2018-Oct-17 07:03N 50°53' W 001°24'0 0.0
2018-Oct-17 07:00N 50°53' W 001°24'0 0.0
2018-Oct-17 06:30N 50°53' W 001°24'0 0.0
2018-Oct-17 06:03N 50°53' W 001°24'0 0.0
2018-Oct-17 06:00N 50°53' W 001°24'0 0.0
2018-Oct-17 05:30N 50°53' W 001°24'0 0.0
2018-Oct-17 05:03N 50°53' W 001°24'0 0.0
2018-Oct-17 05:00N 50°53' W 001°24'0 0.0
2018-Oct-17 04:30N 50°53' W 001°24'0 0.0
2018-Oct-17 04:03N 50°53' W 001°24'0 0.0
2018-Oct-17 04:00N 50°53' W 001°24'0 0.0
2018-Oct-17 03:30N 50°53' W 001°24'0 0.0
2018-Oct-17 03:03N 50°53' W 001°24'0 0.0
2018-Oct-17 03:00N 50°53' W 001°24'0 0.0
2018-Oct-17 02:30N 50°53' W 001°24'0 0.0
2018-Oct-17 02:03N 50°53' W 001°24'0 0.0
2018-Oct-17 02:00N 50°53' W 001°24'0 0.0
2018-Oct-17 01:30N 50°53' W 001°24'0 0.0
2018-Oct-17 01:03N 50°53' W 001°24'0 0.0
2018-Oct-17 01:00N 50°53' W 001°24'0 0.0
2018-Oct-17 00:30N 50°53' W 001°24'0 0.0
2018-Oct-17 00:03N 50°53' W 001°24'0 0.0
2018-Oct-17 00:00N 50°53' W 001°24'0 0.0
2018-Oct-16 23:30N 50°53' W 001°24'0 0.0
2018-Oct-16 23:03N 50°53' W 001°24'0 0.0
2018-Oct-16 23:00N 50°53' W 001°24'0 0.0
2018-Oct-16 22:30N 50°53' W 001°24'0 0.0
2018-Oct-16 22:03N 50°53' W 001°24'0 0.0
2018-Oct-16 22:00N 50°53' W 001°24'0 0.0
2018-Oct-16 21:30N 50°53' W 001°24'0 0.0
2018-Oct-16 21:03N 50°53' W 001°24'0 0.0
2018-Oct-16 21:00N 50°53' W 001°24'0 0.0
2018-Oct-16 20:30N 50°53' W 001°24'0 0.0
2018-Oct-16 20:03N 50°53' W 001°24'0 0.0
2018-Oct-16 20:00N 50°53' W 001°24'0 0.0
2018-Oct-16 19:30N 50°53' W 001°24'0 0.0
2018-Oct-16 19:03N 50°53' W 001°24'0 0.0
2018-Oct-16 19:00N 50°53' W 001°24'0 0.0
2018-Oct-16 18:30N 50°53' W 001°24'0 0.0
2018-Oct-16 18:03N 50°53' W 001°24'0 0.0
2018-Oct-16 18:00N 50°53' W 001°24'0 0.0
2018-Oct-16 17:30N 50°53' W 001°24'0 0.0
2018-Oct-16 17:03N 50°53' W 001°24'0 0.0
2018-Oct-16 17:00N 50°53' W 001°24'0 0.0
2018-Oct-16 16:30N 50°53' W 001°24'0 0.0
2018-Oct-16 16:03N 50°53' W 001°24'0 0.0
2018-Oct-16 16:00N 50°53' W 001°24'0 0.0
2018-Oct-16 15:30N 50°53' W 001°24'0 0.0
2018-Oct-16 15:03N 50°53' W 001°24'0 0.0
2018-Oct-16 15:00N 50°53' W 001°24'0 0.0
2018-Oct-16 14:03N 50°53' W 001°24'0 0.0
2018-Oct-16 14:00N 50°53' W 001°24'0 0.0
2018-Oct-16 13:30N 50°53' W 001°24'0 0.0
2018-Oct-16 13:00N 50°53' W 001°24'0 0.0
2018-Oct-16 12:30N 50°53' W 001°24'0 0.0
2018-Oct-16 12:03N 50°53' W 001°24'0 0.0
2018-Oct-16 12:00N 50°53' W 001°24'0 0.0
2018-Oct-16 11:30N 50°53' W 001°24'0 0.0
2018-Oct-16 11:03N 50°53' W 001°24'0 0.0
2018-Oct-16 11:00N 50°53' W 001°24'0 0.0
2018-Oct-16 10:30N 50°53' W 001°24'0 0.0
2018-Oct-16 10:03N 50°53' W 001°24'0 0.0
2018-Oct-16 10:00N 50°53' W 001°24'0 0.0
2018-Oct-16 09:30N 50°53' W 001°24'0 0.0
2018-Oct-16 09:03N 50°53' W 001°24'0 0.0
2018-Oct-16 09:00N 50°53' W 001°24'0 0.0
2018-Oct-16 08:30N 50°53' W 001°24'0 0.0
2018-Oct-16 08:03N 50°53' W 001°24'0 0.0
2018-Oct-16 08:00N 50°53' W 001°24'0 0.0
2018-Oct-16 07:30N 50°53' W 001°24'0 0.0
2018-Oct-16 07:03N 50°53' W 001°24'0 0.0
2018-Oct-16 07:00N 50°53' W 001°24'0 0.0
2018-Oct-16 06:30N 50°53' W 001°24'0 0.0
2018-Oct-16 06:03N 50°53' W 001°24'0 0.0
2018-Oct-16 06:00N 50°53' W 001°24'0 0.0
2018-Oct-16 05:30N 50°53' W 001°24'0 0.0
2018-Oct-16 05:03N 50°53' W 001°24'0 0.0
2018-Oct-16 04:57N 50°53' W 001°24'0 0.0
2018-Oct-16 04:30N 50°53' W 001°24'0 0.0
2018-Oct-16 04:03N 50°53' W 001°24'0 0.0
2018-Oct-16 04:00N 50°53' W 001°24'0 0.0
2018-Oct-16 03:30N 50°53' W 001°24'0 0.0
2018-Oct-16 03:03N 50°53' W 001°24'0 0.0
2018-Oct-16 02:57N 50°53' W 001°24'0 0.0
2018-Oct-16 02:27N 50°53' W 001°24'0 0.0
2018-Oct-16 02:03N 50°53' W 001°24'0 0.0
2018-Oct-16 02:00N 50°53' W 001°24'0 0.0
2018-Oct-16 01:30N 50°53' W 001°24'0 0.0
2018-Oct-16 01:03N 50°53' W 001°24'0 0.0
2018-Oct-16 01:00N 50°53' W 001°24'0 0.0
2018-Oct-16 00:30N 50°53' W 001°24'0 0.0
2018-Oct-16 00:03N 50°53' W 001°24'0 0.0
2018-Oct-15 23:57N 50°53' W 001°24'0 0.0
2018-Oct-15 23:30N 50°53' W 001°24'0 0.0
2018-Oct-15 23:03N 50°53' W 001°24'0 0.0
2018-Oct-15 23:00N 50°53' W 001°24'0 0.0
2018-Oct-15 22:30N 50°53' W 001°24'0 0.0
2018-Oct-15 22:03N 50°53' W 001°24'0 0.0
2018-Oct-15 21:57N 50°53' W 001°24'0 0.0
2018-Oct-15 21:27N 50°53' W 001°24'0 0.0
2018-Oct-15 21:03N 50°53' W 001°24'0 0.0
2018-Oct-15 21:00N 50°53' W 001°24'0 0.0
2018-Oct-15 20:30N 50°53' W 001°24'0 0.0
2018-Oct-15 20:03N 50°53' W 001°24'0 0.0
2018-Oct-15 20:00N 50°53' W 001°24'0 0.0
2018-Oct-15 19:30N 50°53' W 001°24'0 0.0
2018-Oct-15 19:03N 50°53' W 001°24'0 0.0
2018-Oct-15 19:00N 50°53' W 001°24'0 0.0
2018-Oct-15 18:27N 50°53' W 001°24'0 0.0
2018-Oct-15 18:03N 50°53' W 001°24'0 0.0
2018-Oct-15 18:00N 50°53' W 001°24'0 0.0
2018-Oct-15 17:30N 50°53' W 001°24'0 0.0
2018-Oct-15 17:03N 50°53' W 001°24'0 0.0
2018-Oct-15 17:00N 50°53' W 001°24'0 0.0
2018-Oct-15 16:30N 50°53' W 001°24'0 0.0
2018-Oct-15 16:03N 50°53' W 001°24'0 0.0
2018-Oct-15 16:00N 50°53' W 001°24'0 0.0
2018-Oct-15 15:24N 50°53' W 001°24'0 0.0
2018-Oct-15 15:03N 50°53' W 001°24'0 0.0
2018-Oct-15 14:57N 50°53' W 001°24'0 0.0
2018-Oct-15 14:30N 50°53' W 001°24'0 0.0
2018-Oct-15 14:00N 50°53' W 001°24'0 0.0
2018-Oct-15 13:30N 50°53' W 001°24'0 0.0
2018-Oct-15 12:51N 50°53' W 001°24'0 0.0
2018-Oct-15 12:15N 50°53' W 001°24'0 0.0
2018-Oct-15 12:03N 50°53' W 001°24'0 0.0
2018-Oct-15 11:57N 50°53' W 001°24'0 0.0
2018-Oct-15 11:30N 50°53' W 001°24'0 0.0
2018-Oct-15 11:00N 50°53' W 001°24'0 0.0
2018-Oct-15 10:27N 50°53' W 001°24'0 0.0
2018-Oct-15 10:03N 50°53' W 001°24'0 0.0
2018-Oct-15 09:57N 50°53' W 001°24'0 0.0
2018-Oct-15 09:30N 50°53' W 001°24'0 0.0
2018-Oct-15 09:03N 50°53' W 001°24'0 0.0
2018-Oct-15 09:00N 50°53' W 001°24'0 0.0
2018-Oct-15 08:27N 50°53' W 001°24'0 0.0
2018-Oct-15 08:03N 50°53' W 001°24'0 0.0
2018-Oct-15 08:00N 50°53' W 001°24'0 0.0
2018-Oct-15 07:30N 50°53' W 001°24'0 0.0
2018-Oct-15 07:03N 50°53' W 001°24'0 0.0
2018-Oct-15 07:00N 50°53' W 001°24'0 0.0
2018-Oct-15 06:30N 50°53' W 001°24'0 0.0
2018-Oct-15 06:03N 50°53' W 001°24'0 0.0
2018-Oct-15 05:57N 50°53' W 001°24'0 0.0
2018-Oct-15 05:30N 50°53' W 001°24'0 0.0
2018-Oct-15 05:03N 50°53' W 001°24'0 0.0
2018-Oct-15 05:00N 50°53' W 001°24'0 0.0
2018-Oct-15 04:30N 50°53' W 001°24'0 0.0
2018-Oct-15 04:00N 50°53' W 001°24'0 0.0
2018-Oct-15 03:30N 50°53' W 001°24'0 0.0
2018-Oct-15 03:03N 50°53' W 001°24'0 0.0
2018-Oct-15 03:00N 50°53' W 001°24'0 0.0
2018-Oct-15 02:30N 50°53' W 001°24'0 0.0
2018-Oct-15 02:03N 50°53' W 001°24'0 0.0
2018-Oct-15 01:57N 50°53' W 001°24'0 0.0
2018-Oct-15 01:27N 50°53' W 001°24'0 0.0
2018-Oct-15 01:00N 50°53' W 001°24'0 0.0
2018-Oct-15 00:30N 50°53' W 001°24'0 0.0
2018-Oct-15 00:03N 50°53' W 001°24'0 0.0
2018-Oct-15 00:00N 50°53' W 001°24'0 0.0
2018-Oct-14 23:30N 50°53' W 001°24'0 0.0
2018-Oct-14 23:03N 50°53' W 001°24'0 0.0
2018-Oct-14 22:57N 50°53' W 001°24'0 0.0
2018-Oct-14 22:27N 50°53' W 001°24'0 0.0
2018-Oct-14 22:03N 50°53' W 001°24'0 0.0
2018-Oct-14 22:00N 50°53' W 001°24'0 0.0
2018-Oct-14 21:30N 50°53' W 001°24'0 0.0
2018-Oct-14 21:03N 50°53' W 001°24'0 0.0
2018-Oct-14 21:00N 50°53' W 001°24'0 0.0
2018-Oct-14 20:30N 50°53' W 001°24'0 0.0
2018-Oct-14 20:03N 50°53' W 001°24'0 0.0
2018-Oct-14 20:00N 50°53' W 001°24'0 0.0
2018-Oct-14 19:27N 50°53' W 001°24'0 0.0
2018-Oct-14 19:00N 50°53' W 001°24'0 0.0
2018-Oct-14 18:30N 50°53' W 001°24'0 0.0
2018-Oct-14 18:03N 50°53' W 001°24'0 0.0
2018-Oct-14 18:00N 50°53' W 001°24'0 0.0
2018-Oct-14 17:30N 50°53' W 001°24'0 0.0
2018-Oct-14 17:03N 50°53' W 001°24'0 0.0
2018-Oct-14 17:00N 50°53' W 001°24'0 0.0
2018-Oct-14 16:21N 50°53' W 001°24'0 0.0
2018-Oct-14 16:03N 50°53' W 001°24'0 0.0
2018-Oct-14 16:00N 50°53' W 001°24'0 0.0
2018-Oct-14 15:15N 50°53' W 001°24'0 0.0
2018-Oct-14 15:00N 50°53' W 001°24'0 0.0
2018-Oct-14 14:03N 50°53' W 001°24'0 0.0
2018-Oct-14 14:00N 50°53' W 001°24'0 0.0
2018-Oct-14 13:30N 50°53' W 001°24'0 0.0
2018-Oct-14 13:00N 50°53' W 001°24'0 0.0
2018-Oct-14 12:30N 50°53' W 001°24'0 0.0
2018-Oct-14 11:42N 50°53' W 001°24'0 0.0
2018-Oct-14 11:30N 50°53' W 001°24'0 0.0
2018-Oct-14 11:00N 50°53' W 001°24'0 0.0
2018-Oct-14 10:18N 50°53' W 001°24'0 0.0
2018-Oct-14 10:03N 50°53' W 001°24'0 0.0
2018-Oct-14 09:57N 50°53' W 001°24'0 0.0
2018-Oct-14 09:27N 50°53' W 001°24'0 0.0
2018-Oct-14 09:03N 50°53' W 001°24'0 0.0
2018-Oct-14 09:00N 50°53' W 001°24'0 0.0
2018-Oct-14 08:27N 50°53' W 001°24'0 0.0
2018-Oct-14 08:03N 50°53' W 001°24'0 0.0
2018-Oct-14 07:27N 50°53' W 001°24'0 0.0
2018-Oct-14 07:03N 50°53' W 001°24'0 0.0
2018-Oct-14 06:57N 50°53' W 001°24'0 0.0
2018-Oct-14 06:30N 50°53' W 001°24'0 0.0
2018-Oct-14 06:03N 50°53' W 001°24'0 0.0
2018-Oct-14 06:00N 50°53' W 001°24'0 0.0
2018-Oct-14 05:30N 50°53' W 001°24'0 0.0
2018-Oct-14 05:03N 50°53' W 001°24'0 0.0
2018-Oct-14 05:00N 50°53' W 001°24'0 0.0
2018-Oct-14 04:30N 50°53' W 001°24'0 0.0
2018-Oct-14 04:03N 50°53' W 001°24'0 0.0
2018-Oct-14 04:00N 50°53' W 001°24'0 0.0
2018-Oct-14 03:30N 50°53' W 001°24'0 0.0
2018-Oct-14 03:03N 50°53' W 001°24'0 0.0
2018-Oct-14 03:00N 50°53' W 001°24'0 0.0
2018-Oct-14 02:30N 50°53' W 001°24'0 0.0
2018-Oct-14 02:03N 50°53' W 001°24'0 0.0
2018-Oct-14 02:00N 50°53' W 001°24'0 0.0
2018-Oct-14 01:30N 50°53' W 001°24'0 0.0
2018-Oct-14 01:03N 50°53' W 001°24'0 0.0
2018-Oct-14 01:00N 50°53' W 001°24'0 0.0
2018-Oct-14 00:30N 50°53' W 001°24'0 0.0
2018-Oct-14 00:03N 50°53' W 001°24'0 0.0
2018-Oct-14 00:00N 50°53' W 001°24'0 0.0
2018-Oct-13 23:30N 50°53' W 001°24'0 0.0
2018-Oct-13 23:03N 50°53' W 001°24'0 0.0
2018-Oct-13 23:00N 50°53' W 001°24'0 0.0
2018-Oct-13 22:30N 50°53' W 001°24'0 0.0
2018-Oct-13 22:00N 50°53' W 001°24'0 0.0
2018-Oct-13 21:30N 50°53' W 001°24'0 0.0
2018-Oct-13 21:03N 50°53' W 001°24'0 0.0
2018-Oct-13 20:57N 50°53' W 001°24'0 0.0
2018-Oct-13 20:30N 50°53' W 001°24'0 0.0
2018-Oct-13 20:03N 50°53' W 001°24'0 0.0
2018-Oct-13 20:00N 50°53' W 001°24'0 0.0
2018-Oct-13 19:30N 50°53' W 001°24'0 0.0
2018-Oct-13 19:03N 50°53' W 001°24'0 0.0
2018-Oct-13 19:00N 50°53' W 001°24'0 0.0
2018-Oct-13 18:30N 50°53' W 001°24'0 0.0
2018-Oct-13 18:03N 50°53' W 001°24'0 0.0
2018-Oct-13 18:00N 50°53' W 001°24'0 0.0
2018-Oct-13 17:30N 50°53' W 001°24'0 0.0
2018-Oct-13 17:03N 50°53' W 001°24'0 0.0
2018-Oct-13 17:00N 50°53' W 001°24'0 0.0
2018-Oct-13 16:30N 50°53' W 001°24'0 0.0
2018-Oct-13 16:03N 50°53' W 001°24'0 0.0
2018-Oct-13 16:00N 50°53' W 001°24'0 0.0
2018-Oct-13 15:30N 50°53' W 001°24'0 0.0
2018-Oct-13 15:03N 50°53' W 001°24'0 0.0
2018-Oct-13 15:00N 50°53' W 001°24'0 0.0
2018-Oct-13 14:30N 50°53' W 001°24'0 0.0
2018-Oct-13 14:00N 50°53' W 001°24'0 0.0
2018-Oct-13 13:30N 50°53' W 001°24'0 0.0
2018-Oct-13 13:03N 50°53' W 001°24'0 0.0
2018-Oct-13 13:00N 50°53' W 001°24'0 0.0
2018-Oct-13 12:30N 50°53' W 001°24'0 0.0
2018-Oct-13 12:03N 50°53' W 001°24'0 0.0
2018-Oct-13 12:00N 50°53' W 001°24'0 0.0
2018-Oct-13 11:30N 50°53' W 001°24'0 0.0
2018-Oct-13 11:03N 50°53' W 001°24'0 0.0
2018-Oct-13 11:00N 50°53' W 001°24'0 0.0
2018-Oct-13 10:30N 50°53' W 001°24'0 0.0
2018-Oct-13 10:03N 50°53' W 001°24'0 0.0
2018-Oct-13 10:00N 50°53' W 001°24'0 0.0
2018-Oct-13 09:30N 50°53' W 001°24'0 0.0
2018-Oct-13 09:03N 50°53' W 001°24'0 0.0
2018-Oct-13 09:00N 50°53' W 001°24'0 0.0
2018-Oct-13 08:30N 50°53' W 001°24'0 0.0
2018-Oct-13 08:03N 50°53' W 001°24'0 0.0
2018-Oct-13 08:00N 50°53' W 001°24'0 0.0
2018-Oct-13 07:30N 50°53' W 001°24'0 0.0
2018-Oct-13 07:03N 50°53' W 001°24'0 0.0
2018-Oct-13 07:00N 50°53' W 001°24'0 0.0
2018-Oct-13 06:27N 50°53' W 001°24'0 0.0
2018-Oct-13 06:03N 50°53' W 001°24'0 0.0
2018-Oct-13 06:00N 50°53' W 001°24'0 0.0
2018-Oct-13 05:30N 50°53' W 001°24'0 0.0
2018-Oct-13 05:03N 50°53' W 001°24'0 0.0
2018-Oct-13 04:57N 50°53' W 001°24'0 0.0
2018-Oct-13 04:30N 50°53' W 001°24'0 0.0
2018-Oct-13 04:03N 50°53' W 001°24'0 0.0
2018-Oct-13 04:00N 50°53' W 001°24'0 0.0
2018-Oct-13 03:30N 50°53' W 001°24'0 0.0
2018-Oct-13 03:03N 50°53' W 001°24'0 0.0
2018-Oct-13 03:00N 50°53' W 001°24'0 0.0
2018-Oct-13 02:30N 50°53' W 001°24'0 0.0
2018-Oct-13 02:03N 50°53' W 001°24'0 0.0
2018-Oct-13 02:00N 50°53' W 001°24'0 0.0
2018-Oct-13 01:27N 50°53' W 001°24'0 0.0
2018-Oct-13 01:03N 50°53' W 001°24'0 0.0
2018-Oct-13 01:00N 50°53' W 001°24'0 0.0
2018-Oct-13 00:30N 50°53' W 001°24'0 0.0
2018-Oct-13 00:00N 50°53' W 001°24'0 0.0
2018-Oct-12 23:30N 50°53' W 001°24'0 0.0
2018-Oct-12 23:00N 50°53' W 001°24'0 0.0
2018-Oct-12 22:30N 50°53' W 001°24'0 0.0
2018-Oct-12 22:03N 50°53' W 001°24'0 0.0
2018-Oct-12 22:00N 50°53' W 001°24'0 0.0
2018-Oct-12 21:30N 50°53' W 001°24'0 0.0
2018-Oct-12 21:03N 50°53' W 001°24'0 0.0
2018-Oct-12 21:00N 50°53' W 001°24'0 0.0
2018-Oct-12 20:30N 50°53' W 001°24'0 0.0
2018-Oct-12 20:03N 50°53' W 001°24'0 0.0
2018-Oct-12 20:00N 50°53' W 001°24'0 0.0
2018-Oct-12 19:30N 50°53' W 001°24'0 0.0
2018-Oct-12 19:00N 50°53' W 001°24'0 0.0
2018-Oct-12 18:27N 50°53' W 001°24'0 0.0
2018-Oct-12 18:03N 50°53' W 001°24'0 0.0
2018-Oct-12 18:00N 50°53' W 001°24'0 0.0
2018-Oct-12 17:30N 50°53' W 001°24'0 0.0
2018-Oct-12 17:03N 50°53' W 001°24'0 0.0
2018-Oct-12 16:57N 50°53' W 001°24'0 0.0
2018-Oct-12 16:18N 50°53' W 001°24'0 0.0
2018-Oct-12 16:03N 50°53' W 001°24'0 0.0
2018-Oct-12 16:00N 50°53' W 001°24'0 0.0
2018-Oct-12 15:30N 50°53' W 001°24'0 0.0
2018-Oct-12 15:03N 50°53' W 001°24'0 0.0
2018-Oct-12 15:00N 50°53' W 001°24'0 0.0
2018-Oct-12 14:03N 50°53' W 001°24'0 0.0
2018-Oct-12 13:57N 50°53' W 001°24'0 0.0
2018-Oct-12 13:30N 50°53' W 001°24'0 0.0
2018-Oct-12 13:03N 50°53' W 001°24'0 0.0
2018-Oct-12 13:00N 50°53' W 001°24'0 0.0
2018-Oct-12 12:30N 50°53' W 001°24'0 0.0
2018-Oct-12 12:03N 50°53' W 001°24'0 0.0
2018-Oct-12 11:57N 50°53' W 001°24'0 0.0
2018-Oct-12 11:30N 50°53' W 001°24'0 0.0
2018-Oct-12 11:03N 50°53' W 001°24'0 0.0
2018-Oct-12 11:00N 50°53' W 001°24'0 0.0
2018-Oct-12 10:27N 50°53' W 001°24'0 0.0
2018-Oct-12 10:00N 50°53' W 001°24'0 0.0
2018-Oct-12 09:30N 50°53' W 001°24'0 0.0
2018-Oct-12 09:03N 50°53' W 001°24'0 0.0
2018-Oct-12 09:00N 50°53' W 001°24'0 0.0
2018-Oct-12 08:30N 50°53' W 001°24'0 0.0
2018-Oct-12 08:03N 50°53' W 001°24'0 0.0
2018-Oct-12 07:57N 50°53' W 001°24'0 0.0
2018-Oct-12 07:30N 50°53' W 001°24'0 0.0
2018-Oct-12 07:03N 50°53' W 001°24'0 0.0
2018-Oct-12 06:57N 50°53' W 001°24'0 0.0
2018-Oct-12 06:30N 50°53' W 001°24'0 0.0
2018-Oct-12 06:03N 50°53' W 001°24'0 0.0
2018-Oct-12 06:00N 50°53' W 001°24'0 0.0
2018-Oct-12 05:27N 50°53' W 001°24'0 0.0
2018-Oct-12 05:00N 50°53' W 001°24'0 0.0
2018-Oct-12 04:30N 50°53' W 001°24'0 0.0
2018-Oct-12 04:03N 50°53' W 001°24'0 0.0
2018-Oct-12 03:57N 50°53' W 001°24'0 0.0
2018-Oct-12 03:30N 50°53' W 001°24'0 0.0
2018-Oct-12 03:03N 50°53' W 001°24'0 0.0
2018-Oct-12 03:00N 50°53' W 001°24'0 0.0
2018-Oct-12 02:30N 50°53' W 001°24'0 0.0
2018-Oct-12 02:00N 50°53' W 001°24'0 0.0
2018-Oct-12 01:30N 50°53' W 001°24'0 0.0
2018-Oct-12 01:03N 50°53' W 001°24'0 0.0
2018-Oct-12 00:57N 50°53' W 001°24'0 0.0
2018-Oct-12 00:30N 50°53' W 001°24'0 0.0
2018-Oct-12 00:03N 50°53' W 001°24'0 0.0
2018-Oct-12 00:00N 50°53' W 001°24'0 0.0
2018-Oct-11 23:30N 50°53' W 001°24'0 0.0
2018-Oct-11 23:03N 50°53' W 001°24'0 0.0
2018-Oct-11 23:00N 50°53' W 001°24'0 0.0
2018-Oct-11 22:30N 50°53' W 001°24'0 0.0
2018-Oct-11 22:03N 50°53' W 001°24'0 0.0
2018-Oct-11 21:57N 50°53' W 001°24'0 0.0
2018-Oct-11 21:30N 50°53' W 001°24'0 0.0
2018-Oct-11 21:03N 50°53' W 001°24'0 0.0
2018-Oct-11 21:00N 50°53' W 001°24'0 0.0
2018-Oct-11 20:30N 50°53' W 001°24'0 0.0
2018-Oct-11 20:03N 50°53' W 001°24'0 0.0
2018-Oct-11 19:54N 50°53' W 001°24'0 0.0
2018-Oct-11 19:30N 50°53' W 001°24'0 0.0
2018-Oct-11 19:03N 50°53' W 001°24'0 0.0
2018-Oct-11 19:00N 50°53' W 001°24'0 0.0
2018-Oct-11 18:30N 50°53' W 001°24'0 0.0
2018-Oct-11 18:03N 50°53' W 001°24'0 0.0
2018-Oct-11 18:00N 50°53' W 001°24'0 0.0
2018-Oct-11 17:30N 50°53' W 001°24'0 0.0
2018-Oct-11 17:03N 50°53' W 001°24'0 0.0
2018-Oct-11 16:57N 50°53' W 001°24'0 0.0
2018-Oct-11 16:30N 50°53' W 001°24'0 0.0
2018-Oct-11 16:00N 50°53' W 001°24'0 0.0
2018-Oct-11 15:30N 50°53' W 001°24'4 8.0
2018-Oct-11 15:03N 50°51' W 001°20'113.9
2018-Oct-11 15:00N 50°50' W 001°19'510.0
2018-Oct-11 14:30N 50°46' W 001°22'18 9.8
2018-Oct-11 12:43N 50°37' W 001°46'211.4
2018-Oct-11 12:30N 50°37' W 001°50'511.3
2018-Oct-11 12:03N 50°35' W 001°57'110.3
2018-Oct-11 12:00N 50°35' W 001°58'  

Dump ship's entire track history